Time;durP1;ratioP1;P1;durP2;ratioP2;P2;SDS_P1;SDS_P2;PMS_P1;PMS_P2;Temp;Humidity;BMP_temperature;BMP_pressure;BME280_temperature;BME280_humidity;BME280_pressure;Samples;Min_cycle;Max_cycle;Signal;HPM_P1;HPM_P2
2022/03/21 00:01:12;;;;;;;8.88;5.07;;;;;;;4.32;66.29;103022.19;5095542;27;97812;-37
2022/03/21 00:03:37;;;;;;;11.30;5.60;;;;;;;4.34;66.93;103022.16;5077110;27;97214;-36
2022/03/21 00:06:03;;;;;;;9.23;5.20;;;;;;;4.25;66.21;103007.88;5095408;27;96505;-36
2022/03/21 00:08:29;;;;;;;7.93;4.97;;;;;;;4.31;66.61;103030.22;5077014;27;100904;-36
2022/03/21 00:10:55;;;;;;;7.75;5.30;;;;;;;4.23;66.55;103015.03;5077355;27;100695;-36
2022/03/21 00:13:21;;;;;;;13.02;6.95;;;;;;;4.23;66.92;103024.88;5077415;27;96854;-36
2022/03/21 00:15:48;;;;;;;7.78;5.43;;;;;;;4.27;66.57;103032.03;5077133;27;96844;-36
2022/03/21 00:18:15;;;;;;;14.48;6.28;;;;;;;4.25;66.64;103032.00;5076303;27;100860;-36
2022/03/21 00:20:45;;;;;;;7.25;5.82;;;;;;;4.27;66.42;103037.38;5076851;27;100905;-36
2022/03/21 00:23:11;;;;;;;9.52;6.13;;;;;;;4.24;66.43;103032.00;5077051;27;97756;-37
2022/03/21 00:25:37;;;;;;;12.70;6.25;;;;;;;4.19;66.27;103021.28;5077097;27;96801;-36
2022/03/21 00:28:04;;;;;;;9.95;6.93;;;;;;;4.24;66.70;103032.91;5076689;27;100795;-37
2022/03/21 00:30:30;;;;;;;6.85;4.78;;;;;;;4.19;66.81;103018.59;5076716;27;100697;-36
2022/03/21 00:32:56;;;;;;;8.32;5.75;;;;;;;4.19;66.49;103023.94;5095978;27;96494;-37
2022/03/21 00:35:22;;;;;;;8.07;4.60;;;;;;;4.10;66.53;103012.34;5096392;27;96786;-37
2022/03/21 00:37:48;;;;;;;11.05;5.72;;;;;;;4.16;66.92;103028.44;5078934;27;100706;-36
2022/03/21 00:40:15;;;;;;;12.52;6.90;;;;;;;4.11;66.60;103025.75;5098907;27;97848;-36
2022/03/21 00:42:43;;;;;;;9.65;6.13;;;;;;;4.06;66.90;103016.81;5079634;27;96627;-36
2022/03/21 00:45:15;;;;;;;9.27;5.68;;;;;;;4.12;66.56;103034.69;5080459;27;96803;-36
2022/03/21 00:47:41;;;;;;;10.75;6.18;;;;;;;4.12;66.82;103032.88;5098856;27;97811;-36
2022/03/21 00:50:09;;;;;;;10.70;5.45;;;;;;;4.06;67.40;103022.19;5098753;27;97360;-36
2022/03/21 00:52:55;;;;;;;10.40;5.47;;;;;;;4.09;67.47;103027.53;5080308;27;96682;-36
2022/03/21 00:55:22;;;;;;;8.68;4.63;;;;;;;4.11;66.74;103031.13;5080184;27;96753;-36
2022/03/21 00:57:48;;;;;;;8.00;5.20;;;;;;;4.04;67.03;103018.59;5079864;27;101010;-36
2022/03/21 01:00:15;;;;;;;7.20;4.45;;;;;;;4.10;66.81;103037.38;5099327;27;97394;-36
2022/03/21 01:02:41;;;;;;;10.10;5.55;;;;;;;4.02;66.60;103028.41;5080201;27;96517;-36
2022/03/21 01:05:08;;;;;;;10.43;6.38;;;;;;;4.04;67.14;103032.88;5098821;27;96855;-36
2022/03/21 01:07:34;;;;;;;8.27;4.40;;;;;;;3.94;67.15;103016.81;5079065;27;101239;-36
2022/03/21 01:09:59;;;;;;;12.43;8.00;;;;;;;3.98;66.56;103031.97;5097991;27;99813;-37
2022/03/21 01:12:26;;;;;;;8.52;5.93;;;;;;;3.99;66.88;103033.78;5098498;27;96665;-36
2022/03/21 01:14:52;;;;;;;9.73;5.50;;;;;;;3.99;67.38;103040.03;5080185;27;96822;-36
2022/03/21 01:17:17;;;;;;;9.57;6.00;;;;;;;3.95;66.83;103034.66;5098131;27;99441;-36
2022/03/21 01:19:43;;;;;;;8.77;4.90;;;;;;;3.98;67.21;103043.63;5098539;27;97884;-36
2022/03/21 01:22:08;;;;;;;10.07;5.40;;;;;;;3.89;66.72;103030.22;5098737;27;96449;-36
2022/03/21 01:24:35;;;;;;;8.73;5.40;;;;;;;3.91;66.95;103046.28;5098960;27;96786;-36
2022/03/21 01:27:02;;;;;;;7.03;4.43;;;;;;;3.90;66.95;103044.50;5097802;27;99461;-36
2022/03/21 01:29:27;;;;;;;7.68;5.15;;;;;;;3.88;66.98;103044.47;5079383;27;101064;-36
2022/03/21 01:31:53;;;;;;;8.57;5.25;;;;;;;3.76;66.80;103037.31;5098018;27;96517;-36
2022/03/21 01:34:18;;;;;;;8.70;5.05;;;;;;;3.79;67.72;103034.66;5098551;27;96788;-36
2022/03/21 01:36:43;;;;;;;11.57;5.10;;;;;;;3.75;67.85;103027.50;5097778;27;99700;-36
2022/03/21 01:39:08;;;;;;;7.60;4.75;;;;;;;3.69;67.71;103024.78;5098023;27;97745;-36
2022/03/21 01:41:34;;;;;;;8.90;5.88;;;;;;;3.75;67.16;103051.63;5097305;27;117121;-36
2022/03/21 01:44:01;;;;;;;9.20;5.45;;;;;;;3.75;67.68;103048.94;5098041;27;96792;-36
2022/03/21 01:46:27;;;;;;;7.80;4.75;;;;;;;3.72;67.64;103046.25;5097778;27;98076;-36
2022/03/21 01:48:53;;;;;;;10.88;5.82;;;;;;;3.73;67.38;103056.06;5079392;27;100935;-36
2022/03/21 01:51:19;;;;;;;7.55;5.10;;;;;;;3.68;67.83;103052.50;5079540;27;96615;-36
2022/03/21 01:56:29;;;;;;;8.27;5.05;;;;;;;3.64;67.80;103045.31;5097485;27;96961;-36
2022/03/21 01:58:54;;;;;;;15.10;7.00;;;;;;;3.70;67.94;103057.88;5078980;27;101270;-36
2022/03/21 02:01:20;;;;;;;10.32;6.40;;;;;;;3.69;67.80;103061.41;5096998;27;115982;-36
2022/03/21 02:03:45;;;;;;;10.30;4.93;;;;;;;3.68;68.17;103055.19;5096837;27;116565;-36
2022/03/21 02:06:11;;;;;;;15.40;6.68;;;;;;;3.60;67.62;103044.44;5096874;27;99146;-36
2022/03/21 02:08:36;;;;;;;8.48;4.97;;;;;;;3.60;67.37;103056.94;5078950;27;101138;-36
2022/03/21 02:11:02;;;;;;;7.45;5.55;;;;;;;3.64;67.98;103057.84;5097744;27;96448;-36
2022/03/21 02:13:28;;;;;;;11.63;6.90;;;;;;;3.61;67.95;103061.41;5097921;27;96880;-36
2022/03/21 02:15:53;;;;;;;9.57;4.47;;;;;;;3.61;68.78;103058.72;5078823;27;100775;-36
2022/03/21 02:18:20;;;;;;;7.47;5.57;;;;;;;3.62;67.80;103060.50;5097057;27;99280;-36
2022/03/21 02:20:47;;;;;;;7.03;4.93;;;;;;;3.54;68.57;103055.13;5061461;27;96808;-36
2022/03/21 02:23:17;;;;;;;10.00;6.22;;;;;;;3.52;68.09;103045.28;5078949;27;96841;-36
2022/03/21 02:25:43;;;;;;;7.03;4.80;;;;;;;3.52;68.10;103045.28;5096522;27;124358;-36
2022/03/21 02:28:12;;;;;;;8.70;4.45;;;;;;;3.52;68.48;103050.66;5096914;27;99089;-36
2022/03/21 02:30:40;;;;;;;6.25;4.65;;;;;;;3.55;68.02;103058.69;5078855;27;96731;-36
2022/03/21 02:33:06;;;;;;;8.63;5.13;;;;;;;3.48;68.48;103054.19;5078892;27;96813;-36
2022/03/21 02:35:33;;;;;;;12.73;6.38;;;;;;;3.48;67.68;103052.44;5096944;27;97887;-36
2022/03/21 02:37:59;;;;;;;8.55;5.45;;;;;;;3.49;68.31;103061.38;5078820;27;100940;-36
2022/03/21 02:40:25;;;;;;;7.53;4.70;;;;;;;3.51;68.22;103065.84;5078797;27;96550;-36
2022/03/21 02:42:51;;;;;;;8.07;5.22;;;;;;;3.42;68.69;103046.16;5078548;27;96778;-36
2022/03/21 02:45:16;;;;;;;13.73;6.15;;;;;;;3.38;68.09;103046.16;5096625;27;97467;-36
2022/03/21 02:47:42;;;;;;;8.10;5.07;;;;;;;3.39;68.56;103047.06;5096952;27;97829;-36
2022/03/21 02:50:12;;;;;;;8.48;5.28;;;;;;;3.44;68.30;103052.44;5097139;27;96654;-36
2022/03/21 02:52:39;;;;;;;9.85;5.72;;;;;;;3.44;68.38;103058.66;5078466;27;96877;-36
2022/03/21 02:55:05;;;;;;;7.45;4.65;;;;;;;3.42;68.24;103059.56;5078281;27;100942;-36
2022/03/21 02:57:32;;;;;;;8.30;4.97;;;;;;;3.43;68.40;103061.34;5078114;27;101675;-36
2022/03/21 02:59:58;;;;;;;8.10;6.10;;;;;;;3.42;68.42;103068.47;5077867;27;96759;-36
2022/03/21 03:02:23;;;;;;;11.13;6.65;;;;;;;3.36;68.17;103055.06;5097335;27;96721;-36
2022/03/21 03:04:48;;;;;;;8.00;5.53;;;;;;;3.34;68.67;103060.41;5095276;27;127212;-36
2022/03/21 03:07:14;;;;;;;9.73;5.45;;;;;;;3.34;68.75;103059.53;5095591;27;98880;-36
2022/03/21 03:09:39;;;;;;;10.70;6.35;;;;;;;3.34;68.78;103065.78;5095507;27;113421;-36
2022/03/21 03:12:05;;;;;;;13.32;6.28;;;;;;;3.38;68.48;103067.59;5095799;27;115407;-36
2022/03/21 03:14:30;;;;;;;10.90;7.05;;;;;;;3.33;68.29;103061.28;5096728;27;97856;-36
2022/03/21 03:16:56;;;;;;;8.07;4.90;;;;;;;3.32;69.21;103064.88;5095545;27;126681;-36
2022/03/21 03:19:21;;;;;;;7.28;4.50;;;;;;;3.36;68.48;103065.75;5096833;27;96524;-36
2022/03/21 03:21:49;;;;;;;7.75;4.80;;;;;;;3.31;69.21;103065.78;5096613;27;96877;-36
2022/03/21 03:24:18;;;;;;;6.75;5.05;;;;;;;3.32;68.66;103085.41;5077506;27;100999;-36
2022/03/21 03:26:43;;;;;;;9.38;5.80;;;;;;;3.34;69.06;103081.84;5078090;27;100868;-36
2022/03/21 03:29:08;;;;;;;8.70;6.05;;;;;;;3.32;69.30;103080.94;5096380;27;96688;-36
2022/03/21 03:31:37;;;;;;;8.35;5.78;;;;;;;3.30;68.94;103085.41;5095661;27;110275;-36
2022/03/21 03:34:04;;;;;;;10.35;5.22;;;;;;;3.31;69.69;103080.91;5076945;27;99131;-36
2022/03/21 03:36:29;;;;;;;7.38;5.57;;;;;;;3.27;69.49;103077.34;5077484;27;100391;-36
2022/03/21 03:38:55;;;;;;;6.50;4.78;;;;;;;3.27;68.86;103082.72;5096480;27;96693;-36
2022/03/21 03:41:20;;;;;;;8.45;4.85;;;;;;;3.18;69.02;103070.16;5095733;27;103054;-36
2022/03/21 03:43:49;;;;;;;8.50;5.85;;;;;;;3.19;69.46;103073.72;5095992;27;97263;-36
2022/03/21 03:46:16;;;;;;;9.30;4.95;;;;;;;3.20;69.44;103086.25;5077285;27;100924;-36
2022/03/21 03:48:42;;;;;;;10.50;6.72;;;;;;;3.18;68.86;103083.53;5096123;27;96600;-36
2022/03/21 03:51:08;;;;;;;10.40;5.95;;;;;;;3.13;69.46;103079.94;5078008;27;96867;-36
2022/03/21 03:53:33;;;;;;;6.60;4.95;;;;;;;3.12;69.95;103079.94;5095903;27;98010;-36
2022/03/21 03:55:59;;;;;;;10.18;6.65;;;;;;;3.09;69.36;103085.28;5095658;27;99134;-36
2022/03/21 03:58:24;;;;;;;9.77;5.60;;;;;;;3.05;69.82;103072.75;5095636;27;96454;-36
2022/03/21 04:00:51;;;;;;;10.57;6.85;;;;;;;3.05;69.62;103083.47;5096190;27;96840;-36
2022/03/21 04:06:01;;;;;;;7.95;6.13;;;;;;;3.10;69.27;103089.72;5094292;27;97049;-36
2022/03/21 04:08:26;;;;;;;6.93;4.80;;;;;;;2.99;69.59;103078.97;5096064;27;96753;-36
2022/03/21 04:10:51;;;;;;;6.00;4.45;;;;;;;3.07;69.12;103089.72;5096178;27;96820;-36
2022/03/21 04:13:17;;;;;;;9.23;5.75;;;;;;;3.05;69.28;103086.13;5097585;27;122999;-36
2022/03/21 04:15:42;;;;;;;12.27;6.45;;;;;;;3.01;68.70;103085.25;5099929;27;97799;-36
2022/03/21 04:18:07;;;;;;;10.10;6.20;;;;;;;3.04;69.09;103087.03;5098779;27;116958;-36
2022/03/21 04:20:36;;;;;;;6.85;4.68;;;;;;;3.04;69.32;103085.25;5098553;27;117133;-36
2022/03/21 04:23:02;;;;;;;8.55;5.95;;;;;;;3.00;69.41;103083.44;5080045;27;100957;-36
2022/03/21 04:25:27;;;;;;;11.93;7.13;;;;;;;3.02;68.66;103091.47;5099538;27;97359;-36
2022/03/21 04:27:53;;;;;;;7.63;5.18;;;;;;;3.00;68.96;103088.78;5099266;27;96690;-35
2022/03/21 04:30:21;;;;;;;7.80;5.00;;;;;;;3.07;69.30;103105.78;5099556;27;96761;-36
2022/03/21 04:32:47;;;;;;;6.25;4.75;;;;;;;3.05;68.81;103096.84;5080497;27;100741;-36
2022/03/21 04:35:12;;;;;;;9.13;4.63;;;;;;;3.00;69.29;103093.25;5099286;27;97798;-36
2022/03/21 04:37:38;;;;;;;9.30;5.90;;;;;;;3.06;69.57;103104.91;5098521;27;115139;-36
2022/03/21 04:40:06;;;;;;;10.93;6.32;;;;;;;3.02;68.92;103100.41;5080935;27;96805;-36
2022/03/21 04:42:32;;;;;;;11.52;7.40;;;;;;;3.03;69.02;103103.97;5080028;27;100886;-36
2022/03/21 04:44:57;;;;;;;8.73;5.13;;;;;;;2.97;69.01;103092.34;5099251;27;97120;-36
2022/03/21 04:47:22;;;;;;;7.10;4.75;;;;;;;3.05;68.89;103107.56;5098434;27;96954;-35
2022/03/21 04:49:49;;;;;;;8.75;5.70;;;;;;;3.03;69.16;103109.31;5099014;27;96791;-35
2022/03/21 04:52:14;;;;;;;12.07;6.18;;;;;;;3.03;69.06;103109.31;5098758;27;97868;-36
2022/03/21 04:54:40;;;;;;;10.80;6.30;;;;;;;2.95;69.09;103098.56;5098494;27;99168;-36
2022/03/21 04:57:06;;;;;;;8.95;6.15;;;;;;;3.00;68.97;103104.84;5097808;27;117204;-36
2022/03/21 04:59:33;;;;;;;8.07;6.07;;;;;;;3.02;69.32;103110.22;5080391;27;96773;-36
2022/03/21 05:01:59;;;;;;;7.65;5.07;;;;;;;2.95;69.22;103101.25;5098379;27;98913;-36
2022/03/21 05:04:24;;;;;;;7.53;4.90;;;;;;;2.96;68.92;103106.63;5098968;27;97113;-36
2022/03/21 05:06:49;;;;;;;11.00;4.97;;;;;;;3.00;69.61;103114.66;5097883;27;96828;-35
2022/03/21 05:09:15;;;;;;;10.90;5.97;;;;;;;2.94;69.20;103110.19;5096902;27;112413;-36
2022/03/21 05:11:40;;;;;;;6.68;5.28;;;;;;;2.92;69.07;103103.91;5096984;27;97812;-36
2022/03/21 05:14:06;;;;;;;10.07;6.15;;;;;;;2.90;69.29;103111.94;5097103;27;103651;-36
2022/03/21 05:16:32;;;;;;;9.75;5.15;;;;;;;2.88;69.17;103111.00;5097787;27;96568;-36
2022/03/21 05:18:57;;;;;;;7.88;4.70;;;;;;;2.91;69.56;103115.53;5097500;27;96789;-36
2022/03/21 05:21:23;;;;;;;6.38;4.75;;;;;;;2.85;69.79;103112.78;5097164;27;98126;-36
2022/03/21 05:32:00;;;;;;;6.85;5.00;;;;;;;2.75;70.17;103114.50;5097496;27;97089;-36
2022/03/21 05:37:12;;;;;;;6.78;3.88;;;;;;;2.71;70.21;103118.91;5094506;27;96549;-36
2022/03/21 05:40:31;;;;;;;9.00;4.60;;;;;;;2.75;69.65;103130.56;5077969;27;117545;-36
2022/03/21 05:42:25;;;;;;;5.07;3.60;;;;;;;2.69;69.98;103139.44;5096460;27;98818;-36
2022/03/21 05:44:51;;;;;;;6.57;4.75;;;;;;;2.66;69.97;103133.16;5096348;27;99250;-36
2022/03/21 05:47:16;;;;;;;7.28;5.63;;;;;;;2.58;69.94;103117.06;5096830;27;96486;-36
2022/03/21 05:49:41;;;;;;;8.40;5.75;;;;;;;2.67;69.59;103135.84;5096001;27;116605;-35
2022/03/21 05:52:07;;;;;;;7.00;5.10;;;;;;;2.61;69.69;103130.44;5095547;27;122130;-36
2022/03/21 05:54:32;;;;;;;6.60;5.07;;;;;;;2.66;69.39;103142.06;5096985;27;97197;-36
2022/03/21 05:56:57;;;;;;;7.32;5.32;;;;;;;2.67;69.01;103141.22;5096203;27;101201;-36
2022/03/21 06:02:08;;;;;;;6.32;3.80;;;;;;;2.65;69.69;103139.41;5096303;27;97006;-36
2022/03/21 06:04:33;;;;;;;8.65;5.88;;;;;;;2.64;69.41;103142.94;5095912;27;99456;-36
2022/03/21 06:06:59;;;;;;;14.52;7.63;;;;;;;2.62;69.65;103142.97;5053962;27;1166887;-35
2022/03/21 06:09:24;;;;;;;5.75;4.32;;;;;;;2.61;69.66;103142.94;5097781;27;96755;-36
2022/03/21 06:11:49;;;;;;;8.55;5.60;;;;;;;2.61;70.35;103145.59;5097591;27;97970;-36
2022/03/21 06:14:18;;;;;;;7.45;5.28;;;;;;;2.67;69.65;103157.25;5097323;27;99161;-36
2022/03/21 06:16:43;;;;;;;9.13;5.00;;;;;;;2.67;70.38;103159.03;5078577;27;97556;-35
2022/03/21 06:19:08;;;;;;;7.05;4.20;;;;;;;2.62;69.54;103150.97;5098338;27;96768;-36
2022/03/21 06:21:33;;;;;;;8.15;5.55;;;;;;;2.60;69.67;103146.47;5096434;27;99504;-36
2022/03/21 06:23:59;;;;;;;7.45;4.50;;;;;;;2.59;70.46;103150.03;5097344;27;97939;-36
2022/03/21 06:26:24;;;;;;;16.38;4.50;;;;;;;2.65;69.82;103164.38;5097208;27;96482;-36
2022/03/21 06:28:50;;;;;;;6.00;4.65;;;;;;;2.67;69.09;103159.94;5096404;27;116088;-36
2022/03/21 06:31:15;;;;;;;6.78;5.55;;;;;;;2.72;69.13;103173.38;5097025;27;99242;-36
2022/03/21 06:33:41;;;;;;;8.15;5.65;;;;;;;2.75;68.88;103171.59;5097099;27;97763;-36
2022/03/21 06:36:07;;;;;;;13.75;5.65;;;;;;;2.72;69.03;103158.19;5096723;27;96460;-36
2022/03/21 06:38:33;;;;;;;11.07;6.07;;;;;;;2.76;68.74;103164.44;5096915;27;96764;-36
2022/03/21 06:40:58;;;;;;;7.05;4.72;;;;;;;2.82;68.56;103166.31;5077745;27;100926;-36
2022/03/21 06:43:25;;;;;;;9.50;4.50;;;;;;;2.85;68.42;103169.00;5096957;27;97736;-36
2022/03/21 06:45:51;;;;;;;9.10;5.68;;;;;;;2.95;69.08;103185.13;5078537;27;96453;-36
2022/03/21 06:48:18;;;;;;;9.48;6.10;;;;;;;3.01;68.32;103183.41;5078538;27;96909;-36
2022/03/21 06:50:46;;;;;;;12.65;6.30;;;;;;;3.05;68.40;103178.09;5096016;27;98900;-36
2022/03/21 06:53:12;;;;;;;9.93;5.80;;;;;;;3.19;68.91;103187.13;5077631;27;100734;-36
2022/03/21 06:55:37;;;;;;;12.88;5.57;;;;;;;3.29;68.62;103174.69;5078105;27;96551;-36
2022/03/21 06:58:03;;;;;;;8.00;6.00;;;;;;;3.48;69.56;103188.16;5096227;27;113353;-36
2022/03/21 07:00:29;;;;;;;11.75;6.68;;;;;;;3.65;68.39;103183.81;5078048;27;100762;-36
2022/03/21 07:02:55;;;;;;;11.70;6.05;;;;;;;3.88;68.04;103194.63;5095306;27;97774;-36
2022/03/21 07:05:20;;;;;;;9.02;5.75;;;;;;;4.08;67.55;103197.38;5096153;27;96918;-36
2022/03/21 07:07:47;;;;;;;10.88;5.78;;;;;;;4.29;67.19;103193.88;5096440;27;96845;-36
2022/03/21 07:10:12;;;;;;;11.43;6.55;;;;;;;4.50;66.29;103198.38;5096145;27;99495;-36
2022/03/21 07:12:38;;;;;;;9.40;6.57;;;;;;;4.68;66.11;103190.34;5096620;27;98360;-36
2022/03/21 07:15:04;;;;;;;11.40;5.60;;;;;;;4.80;66.43;103181.41;5096387;27;96564;-36
2022/03/21 07:17:29;;;;;;;13.82;5.95;;;;;;;5.11;65.61;103206.47;5077971;27;96891;-36
2022/03/21 07:19:55;;;;;;;10.80;7.07;;;;;;;5.24;65.17;103201.06;5096175;27;99291;-36
2022/03/21 07:22:20;;;;;;;10.82;6.80;;;;;;;5.43;65.85;103202.81;5096414;27;96889;-36
2022/03/21 07:24:46;;;;;;;10.35;7.07;;;;;;;5.47;65.06;103193.88;5095871;27;112411;-36
2022/03/21 07:27:14;;;;;;;14.30;8.07;;;;;;;5.68;65.54;103200.97;5095813;27;108328;-36
2022/03/21 07:29:39;;;;;;;15.85;8.23;;;;;;;5.86;63.97;103207.19;5095915;27;98937;-36
2022/03/21 07:32:05;;;;;;;10.48;6.38;;;;;;;5.93;64.64;103196.41;5095956;27;111280;-36
2022/03/21 07:34:30;;;;;;;9.68;5.82;;;;;;;6.15;64.04;103213.38;5096701;27;96435;-36
2022/03/21 07:36:56;;;;;;;15.50;6.82;;;;;;;6.33;63.24;103212.38;5096331;27;96791;-36
2022/03/21 07:39:21;;;;;;;11.98;7.30;;;;;;;6.40;63.63;103205.16;5095030;27;115920;-36
2022/03/21 07:41:46;;;;;;;19.20;7.07;;;;;;;6.55;63.51;103212.25;5095647;27;99099;-36
2022/03/21 07:47:17;;;;;;;12.38;7.97;;;;;;;6.68;63.26;103202.31;5095493;27;116681;-36
2022/03/21 07:49:41;;;;;;;8.82;5.78;;;;;;;6.98;62.83;103206.53;5096200;27;98348;-36
2022/03/21 07:52:07;;;;;;;16.40;6.82;;;;;;;7.11;62.81;103205.53;5095736;27;99269;-36
2022/03/21 07:54:33;;;;;;;9.90;5.72;;;;;;;7.29;62.61;103212.53;5096122;27;96587;-36
2022/03/21 07:56:58;;;;;;;13.13;7.10;;;;;;;7.47;62.46;103218.66;5095543;27;117313;-36
2022/03/21 07:59:25;;;;;;;14.57;7.07;;;;;;;7.61;61.73;103214.03;5095738;27;99213;-36
2022/03/21 08:01:50;;;;;;;11.15;6.65;;;;;;;7.72;61.63;103209.38;5095618;27;99199;-36
2022/03/21 08:04:17;;;;;;;16.05;7.80;;;;;;;7.85;60.82;103216.44;5095131;27;101480;-36
2022/03/21 08:06:43;;;;;;;8.90;5.68;;;;;;;7.89;61.10;103220.00;5095713;27;96858;-36
2022/03/21 08:09:08;;;;;;;9.68;6.50;;;;;;;8.07;60.92;103211.66;5095666;27;97834;-36
2022/03/21 08:11:33;;;;;;;14.73;7.05;;;;;;;8.20;61.16;103209.69;5095697;27;105250;-36
2022/03/21 08:13:59;;;;;;;15.55;7.97;;;;;;;8.29;60.44;103223.09;5095705;27;96570;-36
2022/03/21 08:16:24;;;;;;;14.77;5.95;;;;;;;8.35;60.43;103218.50;5076590;27;115884;-36
2022/03/21 08:18:51;;;;;;;10.52;6.15;;;;;;;8.49;60.43;103230.03;5095381;27;99267;-36
2022/03/21 08:21:17;;;;;;;15.13;6.93;;;;;;;8.61;60.00;103226.25;5095668;27;99303;-36
2022/03/21 08:23:42;;;;;;;13.43;6.15;;;;;;;8.68;60.15;103219.84;5095625;27;96598;-36
2022/03/21 08:26:08;;;;;;;13.90;7.90;;;;;;;8.65;59.71;103211.78;5095648;27;96979;-36
2022/03/21 08:28:33;;;;;;;16.15;6.75;;;;;;;8.62;60.04;103218.13;5094857;27;99303;-36
2022/03/21 08:30:58;;;;;;;13.50;6.70;;;;;;;8.66;60.32;103221.69;5095387;27;97266;-36
2022/03/21 08:33:23;;;;;;;14.40;7.32;;;;;;;8.68;60.13;103215.34;5095317;27;100505;-36
2022/03/21 08:35:49;;;;;;;14.32;6.63;;;;;;;8.69;60.25;103214.41;5094494;27;117351;-36
2022/03/21 08:38:14;;;;;;;11.98;5.72;;;;;;;8.73;60.20;103217.97;5095149;27;103926;-36
2022/03/21 08:40:40;;;;;;;11.98;6.50;;;;;;;8.73;59.98;103223.38;5076798;27;99760;-36
2022/03/21 08:43:06;;;;;;;13.57;6.35;;;;;;;8.75;59.69;103224.25;5095494;27;96632;-36
2022/03/21 08:45:32;;;;;;;11.60;5.72;;;;;;;8.63;59.76;103203.72;5096099;27;96748;-36
2022/03/21 08:47:57;;;;;;;9.10;5.28;;;;;;;8.64;60.21;103229.78;5095247;27;97834;-36
2022/03/21 08:50:22;;;;;;;8.43;5.78;;;;;;;8.61;59.75;103224.44;5094973;27;99056;-36
2022/03/21 08:52:48;;;;;;;11.88;5.82;;;;;;;8.62;59.73;103223.50;5095086;27;96666;-36
2022/03/21 08:55:13;;;;;;;9.80;4.85;;;;;;;8.56;59.80;103215.53;5095568;27;96768;-36
2022/03/21 08:57:39;;;;;;;14.48;6.90;;;;;;;8.56;59.78;103218.22;5095470;27;99091;-36
2022/03/21 09:00:06;;;;;;;11.32;6.10;;;;;;;8.58;60.37;103223.59;5098671;27;97900;-36
2022/03/21 09:02:33;;;;;;;10.13;4.93;;;;;;;8.62;59.71;103219.94;5098769;27;96706;-36
2022/03/21 09:04:59;;;;;;;10.63;5.63;;;;;;;8.68;59.49;103220.72;5098549;27;96772;-36
2022/03/21 09:07:24;;;;;;;10.45;4.53;;;;;;;8.63;59.25;103211.81;5079284;27;100799;-36
2022/03/21 09:09:50;;;;;;;6.60;3.78;;;;;;;8.71;59.32;103226.09;5080098;27;100941;-36
2022/03/21 09:12:15;;;;;;;10.48;4.63;;;;;;;8.75;59.21;103220.63;5098226;27;96768;-35
2022/03/21 09:14:41;;;;;;;9.15;5.53;;;;;;;8.79;58.08;103215.16;5098255;27;107255;-36
2022/03/21 09:17:06;;;;;;;12.02;4.18;;;;;;;8.84;57.98;103212.38;5098069;27;97954;-36
2022/03/21 09:19:32;;;;;;;9.30;5.47;;;;;;;8.95;57.96;103214.91;5079422;27;100917;-36
2022/03/21 09:21:58;;;;;;;7.60;4.68;;;;;;;9.02;58.09;103216.59;5098392;27;96638;-36
2022/03/21 09:24:24;;;;;;;12.05;5.20;;;;;;;9.10;58.05;103212.81;5080070;27;96808;-36
2022/03/21 09:26:50;;;;;;;11.20;5.93;;;;;;;9.24;57.56;103214.41;5079521;27;101126;-36
2022/03/21 09:29:15;;;;;;;13.73;5.85;;;;;;;9.24;57.31;103190.94;5098280;27;97839;-36
2022/03/21 09:31:41;;;;;;;12.38;5.70;;;;;;;9.46;57.72;103206.78;5098432;27;96560;-36
2022/03/21 09:34:11;;;;;;;12.27;5.57;;;;;;;9.54;56.41;103202.13;5098688;27;96715;-36
2022/03/21 09:36:38;;;;;;;8.50;4.20;;;;;;;9.73;56.09;103211.66;5079402;27;101043;-36
2022/03/21 09:39:05;;;;;;;9.13;4.95;;;;;;;9.93;56.76;103200.41;5079318;27;100932;-36
2022/03/21 09:41:31;;;;;;;10.00;5.22;;;;;;;10.24;55.82;103201.59;5078723;27;96716;-36
2022/03/21 09:44:07;;;;;;;14.20;6.75;;;;;;;10.60;52.11;103213.41;5098275;27;96817;-36
2022/03/21 09:46:33;;;;;;;15.43;5.60;;;;;;;10.93;53.44;103205.41;5080070;27;99379;-36
2022/03/21 09:48:59;;;;;;;11.85;5.50;;;;;;;11.31;53.33;103200.81;5078992;27;100887;-36
2022/03/21 09:51:29;;;;;;;10.05;5.20;;;;;;;11.48;50.54;103198.53;5079544;27;96555;-36
2022/03/21 09:53:56;;;;;;;13.60;5.25;;;;;;;11.80;52.89;103191.31;5097997;27;96651;-35
2022/03/21 09:56:22;;;;;;;11.88;6.15;;;;;;;12.16;52.77;103200.22;5079023;27;101030;-36
2022/03/21 09:58:48;;;;;;;11.15;5.22;;;;;;;12.48;51.67;103198.31;5098232;27;97764;-36
2022/03/21 10:01:14;;;;;;;10.57;4.97;;;;;;;12.69;50.69;103186.75;5098127;27;96651;-35
2022/03/21 10:03:40;;;;;;;11.63;5.20;;;;;;;12.93;49.37;103195.03;5062081;27;96905;-36
2022/03/21 10:06:28;;;;;;;8.50;4.35;;;;;;;13.12;49.01;103195.28;5097002;27;97386;-35
2022/03/21 10:09:06;;;;;;;12.43;5.00;;;;;;;13.31;49.46;103191.00;5078288;27;100726;-35
2022/03/21 10:11:32;;;;;;;13.77;5.90;;;;;;;13.67;46.57;103193.34;5078795;27;96902;-36
2022/03/21 10:13:57;;;;;;;11.82;6.25;;;;;;;13.84;48.06;103191.84;5079160;27;96800;-36
2022/03/21 10:16:22;;;;;;;10.10;5.65;;;;;;;14.11;47.46;103190.78;5097235;27;98966;-36
2022/03/21 10:18:54;;;;;;;11.50;5.75;;;;;;;14.36;44.97;103181.63;5096091;27;128365;-36
2022/03/21 10:21:21;;;;;;;12.00;5.30;;;;;;;14.55;46.83;103173.63;5097617;27;96584;-36
2022/03/21 10:24:07;;;;;;;13.77;4.75;;;;;;;14.65;46.95;103169.56;5097790;27;96834;-35
2022/03/21 10:26:36;;;;;;;7.70;4.28;;;;;;;14.97;45.53;103175.50;5078495;27;100979;-36
2022/03/21 10:29:05;;;;;;;12.63;5.15;;;;;;;15.13;42.95;103168.41;5097101;27;97916;-36
2022/03/21 10:31:34;;;;;;;12.07;4.57;;;;;;;15.33;44.49;103175.75;5061237;27;96720;-36
2022/03/21 10:34:05;;;;;;;12.43;5.70;;;;;;;15.38;42.93;103179.16;5097270;27;96821;-36
2022/03/21 10:36:30;;;;;;;8.70;4.82;;;;;;;15.42;43.53;103171.69;5078955;27;99333;-36
2022/03/21 10:39:06;;;;;;;11.05;4.80;;;;;;;15.54;41.94;103171.19;5096881;27;99083;-36
2022/03/21 10:41:36;;;;;;;8.90;4.03;;;;;;;15.55;40.83;103170.22;5078526;27;96799;-36
2022/03/21 10:44:08;;;;;;;7.18;3.80;;;;;;;15.67;40.59;103169.66;5061603;27;96826;-35
2022/03/21 10:46:34;;;;;;;7.93;3.63;;;;;;;15.74;37.34;103178.47;5096815;27;99255;-36
2022/03/21 10:49:08;;;;;;;9.90;4.15;;;;;;;16.00;40.01;103166.34;5078385;27;101217;-36
2022/03/21 10:51:50;;;;;;;5.72;3.33;;;;;;;16.12;35.82;103173.94;5078545;27;96832;-36
2022/03/21 10:54:42;;;;;;;8.70;3.75;;;;;;;16.21;38.53;103174.44;5078635;27;96800;-36
2022/03/21 10:57:30;;;;;;;6.68;3.20;;;;;;;16.10;38.72;103154.00;5096232;27;98089;-36
2022/03/21 11:00:11;;;;;;;7.35;3.53;;;;;;;16.22;37.09;103171.66;5078075;27;100813;-36
2022/03/21 11:02:36;;;;;;;10.75;3.53;;;;;;;16.39;38.08;103173.56;5078396;27;96632;-36
2022/03/21 11:05:04;;;;;;;8.30;3.83;;;;;;;16.62;39.03;103161.50;5078063;27;96934;-36
2022/03/21 11:07:30;;;;;;;8.35;3.42;;;;;;;16.83;35.71;103161.38;5076996;27;102337;-35
2022/03/21 11:09:56;;;;;;;7.22;3.63;;;;;;;16.86;36.12;103159.41;5096359;27;97869;-36
2022/03/21 11:12:22;;;;;;;9.40;4.60;;;;;;;17.01;36.20;103154.97;5078258;27;96676;-36
2022/03/21 11:14:48;;;;;;;7.75;4.07;;;;;;;17.15;36.90;103157.00;5078417;27;98041;-36
2022/03/21 11:17:13;;;;;;;8.60;3.65;;;;;;;17.28;38.27;103157.22;5077867;27;101169;-36
2022/03/21 11:19:39;;;;;;;7.80;4.35;;;;;;;17.44;38.60;103157.31;5096277;27;99233;-36
2022/03/21 11:22:04;;;;;;;12.25;5.63;;;;;;;17.58;37.76;103150.09;5095740;27;96731;-36
2022/03/21 11:24:31;;;;;;;9.15;3.83;;;;;;;17.60;33.82;103164.63;5096270;27;96817;-36
2022/03/21 11:27:12;;;;;;;9.70;4.78;;;;;;;17.51;38.15;103158.75;5077726;27;101180;-36
2022/03/21 11:30:28;;;;;;;8.48;4.07;;;;;;;17.53;36.30;103151.34;5077726;27;100688;-36
2022/03/21 11:33:30;;;;;;;7.78;4.15;;;;;;;17.80;37.71;103149.88;5012634;28;96834;-36
2022/03/21 11:36:04;;;;;;;8.80;4.30;;;;;;;17.79;36.81;103147.16;5012916;28;96669;-36
2022/03/21 11:38:34;;;;;;;11.45;5.28;;;;;;;17.86;36.49;103147.75;5063264;27;98768;-36
2022/03/21 11:41:21;;;;;;;10.68;4.75;;;;;;;17.92;34.30;103147.41;5077828;27;100868;-36
2022/03/21 11:44:04;;;;;;;9.07;4.63;;;;;;;17.87;32.59;103139.41;5077698;27;96595;-36
2022/03/21 11:46:34;;;;;;;9.63;4.90;;;;;;;17.92;36.74;103147.41;5096729;27;96647;-36
2022/03/21 11:49:02;;;;;;;7.38;4.07;;;;;;;17.97;36.63;103137.03;5076715;27;101068;-36